Time;durP1;ratioP1;P1;durP2;ratioP2;P2;SDS_P1;SDS_P2;PMS_P1;PMS_P2;Temp;Humidity;BMP_temperature;BMP_pressure;BME280_temperature;BME280_humidity;BME280_pressure;Samples;Min_cycle;Max_cycle;Signal;HPM_P1;HPM_P2
2022/08/10 00:01:23;;;;;;;9.60;4.93;;;;;;;14.26;86.05;99764.28;5059952;28;20040;-60
2022/08/10 00:03:49;;;;;;;6.43;5.00;;;;;;;14.25;86.50;99757.38;5071179;28;20135;-61
2022/08/10 00:06:15;;;;;;;5.85;5.22;;;;;;;14.24;85.87;99753.91;5073056;28;20066;-60
2022/08/10 00:08:40;;;;;;;7.97;5.65;;;;;;;14.22;86.22;99756.00;5073055;28;20080;-60
2022/08/10 00:11:06;;;;;;;9.13;5.15;;;;;;;14.19;86.42;99761.03;5071586;28;20040;-60
2022/08/10 00:13:32;;;;;;;5.32;4.82;;;;;;;14.14;86.33;99763.66;5073046;28;20578;-60
2022/08/10 00:15:58;;;;;;;7.95;5.00;;;;;;;14.10;86.82;99768.69;5072754;28;20147;-61
2022/08/10 00:18:24;;;;;;;7.70;5.10;;;;;;;14.08;86.92;99774.25;5072599;28;20041;-61
2022/08/10 00:20:50;;;;;;;8.70;5.10;;;;;;;14.06;86.94;99765.72;5071747;28;20040;-61
2022/08/10 00:23:16;;;;;;;6.35;5.00;;;;;;;14.04;87.12;99767.03;5073003;28;20032;-58
2022/08/10 00:25:43;;;;;;;8.43;5.60;;;;;;;14.01;87.49;99757.66;5005513;28;20047;-61
2022/08/10 00:28:09;;;;;;;7.70;4.95;;;;;;;14.04;87.13;99762.50;5073009;28;20036;-60
2022/08/10 00:30:35;;;;;;;5.57;4.47;;;;;;;14.07;86.95;99759.31;5072369;28;20494;-62
2022/08/10 00:33:01;;;;;;;6.57;4.70;;;;;;;14.05;86.62;99764.09;5072800;28;20052;-60
2022/08/10 00:35:26;;;;;;;9.45;4.93;;;;;;;14.04;86.50;99759.03;5072672;28;20043;-60
2022/08/10 00:37:52;;;;;;;6.35;4.40;;;;;;;14.05;86.80;99757.97;5071186;28;20509;-60
2022/08/10 00:40:18;;;;;;;9.65;5.22;;;;;;;14.01;86.45;99754.19;5072056;28;20064;-60
2022/08/10 00:42:44;;;;;;;7.25;5.03;;;;;;;13.96;86.85;99757.59;5066524;28;20379;-60
2022/08/10 00:45:10;;;;;;;7.75;4.97;;;;;;;13.90;86.63;99755.16;5052427;28;20044;-60
2022/08/10 00:47:36;;;;;;;6.00;4.72;;;;;;;13.90;86.70;99757.81;5052559;28;20081;-60
2022/08/10 00:50:02;;;;;;;6.47;4.43;;;;;;;13.88;86.73;99759.91;5051788;28;20144;-59
2022/08/10 00:52:30;;;;;;;7.60;5.47;;;;;;;13.84;86.75;99757.75;5052485;28;20103;-60
2022/08/10 00:54:55;;;;;;;6.07;5.07;;;;;;;13.81;86.56;99760.91;5051952;28;20502;-61
2022/08/10 00:57:21;;;;;;;5.88;4.93;;;;;;;13.84;86.70;99764.94;5034259;28;20099;-59
2022/08/10 00:59:47;;;;;;;7.53;5.20;;;;;;;13.81;86.67;99757.44;5046497;28;20060;-59
2022/08/10 01:02:13;;;;;;;7.25;4.72;;;;;;;13.80;86.98;99761.97;5072019;28;20485;-61
2022/08/10 01:04:38;;;;;;;9.68;6.30;;;;;;;13.75;87.20;99767.22;5071891;28;20172;-60
2022/08/10 01:07:25;;;;;;;8.23;5.13;;;;;;;13.74;86.78;99759.50;5070340;28;20098;-61
2022/08/10 01:10:14;;;;;;;7.95;5.45;;;;;;;13.73;86.72;99764.00;5031844;28;20649;-60
2022/08/10 01:12:49;;;;;;;7.18;5.25;;;;;;;13.73;87.21;99766.66;5013655;28;20489;-60
2022/08/10 01:15:23;;;;;;;5.80;5.20;;;;;;;13.70;86.95;99761.84;5030781;28;20104;-60
2022/08/10 01:17:57;;;;;;;7.05;5.82;;;;;;;13.71;86.84;99760.00;5034791;28;20037;-60
2022/08/10 01:20:26;;;;;;;8.55;5.30;;;;;;;13.72;87.13;99761.59;5051216;28;20588;-59
2022/08/10 01:23:04;;;;;;;8.65;5.90;;;;;;;13.68;87.12;99769.28;5071803;28;20052;-60
2022/08/10 01:25:35;;;;;;;7.13;5.18;;;;;;;13.67;87.08;99764.19;5071388;28;20044;-59
2022/08/10 01:28:35;;;;;;;7.28;5.50;;;;;;;13.68;86.97;99761.31;5056511;28;20915;-61
2022/08/10 01:31:02;;;;;;;6.70;5.28;;;;;;;13.68;86.80;99758.63;5033553;28;20140;-61
2022/08/10 01:33:42;;;;;;;7.80;5.60;;;;;;;13.60;86.98;99751.06;5016953;28;20044;-60
2022/08/10 01:36:11;;;;;;;7.97;5.80;;;;;;;13.62;86.38;99759.63;5033458;28;20076;-63
2022/08/10 01:38:44;;;;;;;10.65;5.47;;;;;;;13.59;86.62;99758.25;5049129;28;20086;-60
2022/08/10 01:41:33;;;;;;;6.45;5.30;;;;;;;13.62;86.35;99768.44;5053955;28;20123;-60
2022/08/10 01:44:04;;;;;;;7.32;5.15;;;;;;;13.64;85.96;99770.81;5056863;28;20060;-61
2022/08/10 01:46:31;;;;;;;6.65;5.25;;;;;;;13.62;85.89;99762.31;5013247;28;20131;-62
2022/08/10 01:48:58;;;;;;;5.70;4.88;;;;;;;13.62;85.86;99772.94;5013532;28;20516;-63
2022/08/10 01:51:28;;;;;;;8.80;5.38;;;;;;;13.59;86.16;99776.91;5031274;28;20091;-63
2022/08/10 01:54:00;;;;;;;5.38;4.78;;;;;;;13.57;85.85;99772.88;5031159;28;20132;-62
2022/08/10 01:56:29;;;;;;;9.80;5.38;;;;;;;13.59;86.17;99790.22;5035556;28;20044;-62
2022/08/10 01:58:59;;;;;;;6.65;5.38;;;;;;;13.59;86.22;99786.75;5033225;28;20045;-60
2022/08/10 02:01:27;;;;;;;10.43;5.43;;;;;;;13.63;85.78;99783.34;5032848;28;20039;-61
2022/08/10 02:03:57;;;;;;;8.98;6.15;;;;;;;13.76;85.22;99774.16;5050916;28;20049;-63
2022/08/10 02:06:27;;;;;;;10.18;6.25;;;;;;;13.91;84.24;99778.06;5046971;28;20037;-60
2022/08/10 02:08:53;;;;;;;7.75;5.85;;;;;;;14.07;83.15;99772.66;5052961;28;20521;-60
2022/08/10 02:11:20;;;;;;;7.07;5.63;;;;;;;14.20;82.71;99776.78;5071181;28;20374;-60
2022/08/10 02:14:06;;;;;;;8.35;6.30;;;;;;;14.35;81.50;99781.44;5042245;28;20147;-60
2022/08/10 02:16:33;;;;;;;8.27;6.53;;;;;;;14.59;80.20;99781.16;5035949;28;20041;-60
2022/08/10 02:19:00;;;;;;;8.02;5.43;;;;;;;14.87;79.37;99791.53;5052797;28;20132;-61
2022/08/10 02:21:28;;;;;;;11.60;5.50;;;;;;;15.11;77.91;99791.16;5071059;28;20051;-61
2022/08/10 02:23:55;;;;;;;6.32;5.68;;;;;;;15.12;77.47;99804.28;5072048;28;20048;-60
2022/08/10 02:26:21;;;;;;;6.68;5.50;;;;;;;15.25;76.95;99799.53;5056689;28;20134;-60
2022/08/10 02:28:47;;;;;;;7.10;6.00;;;;;;;15.28;76.61;99810.50;5075008;28;20444;-59
2022/08/10 02:31:16;;;;;;;6.85;5.20;;;;;;;15.37;76.42;99800.13;5073519;28;20044;-61
2022/08/10 02:33:44;;;;;;;8.07;5.18;;;;;;;15.31;76.86;99804.66;5074851;28;20466;-62
2022/08/10 02:36:10;;;;;;;7.25;5.22;;;;;;;15.38;76.13;99807.91;5059733;28;20045;-60
2022/08/10 02:38:48;;;;;;;6.22;4.90;;;;;;;15.87;74.44;99804.94;5033231;28;20045;-60
2022/08/10 02:41:39;;;;;;;6.63;4.60;;;;;;;16.30;72.66;99802.13;5029925;28;20056;-60
2022/08/10 02:44:09;;;;;;;6.20;4.90;;;;;;;16.69;70.98;99801.63;5074701;28;20086;-58
2022/08/10 02:46:46;;;;;;;5.38;4.88;;;;;;;16.91;69.86;99799.53;5056774;28;20131;-61
2022/08/10 02:49:20;;;;;;;11.05;4.60;;;;;;;16.67;70.46;99806.44;5039722;28;20497;-61
2022/08/10 02:51:51;;;;;;;7.13;4.90;;;;;;;16.37;71.84;99799.19;5074736;28;20075;-60
2022/08/10 02:54:21;;;;;;;5.43;4.75;;;;;;;16.60;70.92;99796.00;5056085;28;20048;-59
2022/08/10 02:56:58;;;;;;;5.47;4.80;;;;;;;16.83;69.93;99805.41;5069415;28;20036;-60
2022/08/10 02:59:28;;;;;;;7.60;4.55;;;;;;;17.01;69.14;99807.53;5034121;28;20172;-60
2022/08/10 03:01:57;;;;;;;7.50;4.60;;;;;;;17.06;69.29;99800.56;5000346;28;20045;-59
2022/08/10 03:04:35;;;;;;;8.73;5.20;;;;;;;17.36;67.95;99802.41;5032868;28;20060;-61
2022/08/10 03:07:04;;;;;;;5.80;4.47;;;;;;;17.59;66.85;99799.13;5047720;28;20075;-61
2022/08/10 03:09:35;;;;;;;7.55;4.55;;;;;;;17.71;66.49;99798.81;5070870;28;20053;-60
2022/08/10 03:12:02;;;;;;;5.07;4.60;;;;;;;17.83;65.92;99799.31;5056479;28;20041;-60
2022/08/10 03:14:28;;;;;;;7.45;5.15;;;;;;;18.07;65.40;99802.13;5055748;28;20406;-60
2022/08/10 03:16:54;;;;;;;10.13;4.82;;;;;;;18.14;64.76;99796.47;5056401;28;20047;-59
2022/08/10 03:19:20;;;;;;;6.45;4.95;;;;;;;18.47;63.95;99794.09;5056377;28;20114;-61
2022/08/10 03:21:48;;;;;;;5.57;4.40;;;;;;;18.45;64.04;99801.66;5056065;28;20035;-60
2022/08/10 03:24:16;;;;;;;6.63;4.63;;;;;;;18.56;63.44;99805.84;5056141;28;20489;-60
2022/08/10 03:26:43;;;;;;;8.48;4.57;;;;;;;18.40;64.18;99802.47;5055583;28;20032;-60
2022/08/10 03:29:10;;;;;;;5.90;4.55;;;;;;;18.12;64.92;99812.84;5073763;28;20044;-61
2022/08/10 03:31:36;;;;;;;7.25;4.88;;;;;;;18.16;65.22;99813.09;5073708;28;20497;-59
2022/08/10 03:34:03;;;;;;;4.70;3.80;;;;;;;18.26;64.59;99807.66;5073200;28;20524;-61
2022/08/10 03:36:30;;;;;;;6.55;4.38;;;;;;;18.49;63.97;99805.38;5054287;28;20383;-61
2022/08/10 03:38:56;;;;;;;4.97;4.47;;;;;;;18.56;63.68;99806.66;5073613;28;20040;-60
2022/08/10 03:41:28;;;;;;;5.03;4.43;;;;;;;18.69;63.18;99805.22;5073876;28;20037;-61
2022/08/10 03:43:54;;;;;;;5.30;3.88;;;;;;;18.78;63.14;99813.50;5055427;28;20408;-60
2022/08/10 03:46:22;;;;;;;5.43;4.28;;;;;;;18.65;63.40;99816.78;5072972;28;20125;-61
2022/08/10 03:48:51;;;;;;;5.35;3.90;;;;;;;18.66;63.00;99818.41;5073571;28;20482;-61
2022/08/10 03:51:17;;;;;;;5.13;3.97;;;;;;;18.44;64.08;99819.63;5073302;28;20063;-60
2022/08/10 03:53:43;;;;;;;6.85;4.00;;;;;;;18.44;64.39;99816.13;5055450;28;20040;-61
2022/08/10 03:56:09;;;;;;;5.90;4.90;;;;;;;18.49;64.34;99821.47;5041907;28;20123;-61
2022/08/10 03:58:35;;;;;;;6.30;4.20;;;;;;;18.45;64.48;99820.44;5035354;28;20081;-61
2022/08/10 04:01:01;;;;;;;4.57;4.00;;;;;;;18.44;64.63;99816.94;5053292;28;20079;-63
2022/08/10 04:03:27;;;;;;;4.40;3.55;;;;;;;18.74;63.53;99818.66;5053125;28;20068;-61
2022/08/10 04:05:53;;;;;;;6.68;4.10;;;;;;;18.41;64.16;99817.50;5052964;28;20120;-61
2022/08/10 04:08:19;;;;;;;7.35;3.92;;;;;;;18.04;65.98;99826.84;5035857;28;20103;-61
2022/08/10 04:10:44;;;;;;;5.28;3.80;;;;;;;17.87;66.42;99826.38;5045990;28;20486;-63
2022/08/10 04:13:10;;;;;;;4.53;3.70;;;;;;;17.76;66.83;99822.09;5073328;28;20067;-59
2022/08/10 04:15:36;;;;;;;6.53;3.83;;;;;;;17.64;67.48;99822.41;5050557;28;20040;-62
2022/08/10 04:18:02;;;;;;;4.28;3.88;;;;;;;17.61;67.24;99821.06;5053256;28;20068;-60
2022/08/10 04:20:30;;;;;;;4.10;3.65;;;;;;;17.49;67.63;99809.84;5052983;28;20041;-61
2022/08/10 04:22:59;;;;;;;5.90;3.40;;;;;;;17.77;67.02;99819.16;5037325;28;20501;-59
2022/08/10 04:25:25;;;;;;;4.25;3.10;;;;;;;18.22;65.39;99814.66;5044419;28;20075;-61
2022/08/10 04:27:52;;;;;;;4.43;3.35;;;;;;;18.66;63.84;99818.41;5054803;28;20040;-62
2022/08/10 04:30:18;;;;;;;3.55;3.25;;;;;;;18.97;63.24;99813.59;5037884;28;20044;-61
2022/08/10 04:32:46;;;;;;;5.63;3.08;;;;;;;19.36;61.79;99812.72;5054500;28;20123;-61
2022/08/10 04:35:12;;;;;;;3.13;2.80;;;;;;;19.57;60.37;99821.34;5054369;28;20032;-61
2022/08/10 04:37:39;;;;;;;2.90;2.63;;;;;;;19.13;61.67;99831.19;5054225;28;20622;-60
2022/08/10 04:40:05;;;;;;;3.75;3.00;;;;;;;18.77;63.16;99836.88;5054263;28;20452;-61
2022/08/10 04:42:31;;;;;;;4.72;2.80;;;;;;;18.66;63.96;99831.84;5053671;28;20082;-60
2022/08/10 04:44:56;;;;;;;5.18;3.17;;;;;;;18.67;63.64;99833.44;5034169;28;20053;-61
2022/08/10 04:47:22;;;;;;;3.22;2.92;;;;;;;18.63;63.60;99837.75;5033519;28;20102;-60
2022/08/10 04:49:47;;;;;;;4.85;2.70;;;;;;;18.47;64.19;99829.00;5051766;28;20494;-61
2022/08/10 04:52:13;;;;;;;6.25;3.10;;;;;;;18.35;64.69;99835.53;5051876;28;20076;-60
2022/08/10 04:54:39;;;;;;;4.53;2.83;;;;;;;18.22;64.99;99832.66;5052018;28;20330;-61
2022/08/10 04:57:05;;;;;;;5.68;3.30;;;;;;;18.07;65.76;99834.34;5052154;28;20394;-61
2022/08/10 04:59:33;;;;;;;3.78;2.83;;;;;;;17.86;66.76;99830.16;5035527;28;20044;-63
2022/08/10 05:01:58;;;;;;;3.45;2.88;;;;;;;18.08;66.41;99832.44;5052597;28;20164;-60
2022/08/10 05:04:24;;;;;;;3.10;2.80;;;;;;;18.23;65.94;99843.09;5051633;28;20410;-61
2022/08/10 05:06:50;;;;;;;6.40;2.63;;;;;;;18.21;66.19;99847.94;5051675;28;20040;-60
2022/08/10 05:09:15;;;;;;;2.70;2.50;;;;;;;18.46;65.86;99848.88;5051486;28;20059;-60
2022/08/10 05:11:42;;;;;;;3.47;2.72;;;;;;;18.75;64.48;99859.72;5051819;28;20037;-60
2022/08/10 05:14:08;;;;;;;4.35;2.53;;;;;;;18.65;64.40;99857.88;5048797;28;20048;-62
2022/08/10 05:16:34;;;;;;;3.42;2.90;;;;;;;18.67;64.60;99854.91;5046626;28;20554;-61
2022/08/10 05:18:59;;;;;;;4.72;2.90;;;;;;;18.72;64.48;99847.63;5052021;28;20405;-61
2022/08/10 05:21:25;;;;;;;4.18;2.72;;;;;;;18.69;63.96;99850.06;5051149;28;20453;-60
2022/08/10 05:23:51;;;;;;;5.57;3.10;;;;;;;18.65;64.24;99830.22;5050275;28;20629;-59
2022/08/10 05:26:16;;;;;;;4.45;2.88;;;;;;;18.57;64.78;99834.31;5047885;28;20047;-60
2022/08/10 05:28:42;;;;;;;4.82;3.17;;;;;;;18.55;64.93;99837.25;5050056;28;20037;-61
2022/08/10 05:31:08;;;;;;;4.75;3.13;;;;;;;18.44;65.28;99835.72;5057666;28;20525;-60
2022/08/10 05:33:34;;;;;;;4.88;2.85;;;;;;;18.58;65.23;99842.06;5064326;28;20044;-61
2022/08/10 05:36:00;;;;;;;4.13;2.95;;;;;;;18.46;65.59;99832.78;5036723;28;20535;-60
2022/08/10 05:38:27;;;;;;;4.82;3.60;;;;;;;18.51;65.57;99836.22;5044996;28;20055;-62
2022/08/10 05:40:52;;;;;;;4.75;3.00;;;;;;;18.51;65.43;99840.78;5045978;28;20395;-61
2022/08/10 05:43:20;;;;;;;3.35;2.95;;;;;;;18.35;66.04;99838.22;5027524;28;20056;-59
2022/08/10 05:45:47;;;;;;;3.67;3.00;;;;;;;18.36;66.04;99829.06;5045412;28;20037;-59
2022/08/10 05:48:12;;;;;;;4.18;3.50;;;;;;;18.35;65.97;99832.03;5032876;28;20087;-58
2022/08/10 05:50:38;;;;;;;4.25;3.17;;;;;;;18.34;66.59;99833.91;5069715;28;20080;-60
2022/08/10 05:53:04;;;;;;;3.53;3.00;;;;;;;18.25;66.93;99821.38;5051495;28;20079;-61
2022/08/10 05:55:30;;;;;;;3.42;3.05;;;;;;;18.31;66.74;99825.63;5014384;28;20552;-60
2022/08/10 05:57:57;;;;;;;3.40;3.10;;;;;;;18.31;66.50;99833.66;5048202;28;20037;-59
2022/08/10 06:00:24;;;;;;;3.72;3.42;;;;;;;18.31;66.71;99831.78;5060667;28;20049;-60
2022/08/10 06:02:53;;;;;;;6.47;3.00;;;;;;;18.43;66.44;99833.31;5066863;28;20456;-61
2022/08/10 06:05:24;;;;;;;3.33;3.03;;;;;;;18.44;66.17;99835.72;5070165;28;20053;-60
2022/08/10 06:07:50;;;;;;;3.38;3.03;;;;;;;18.52;64.99;99839.72;5069765;28;20040;-61
2022/08/10 06:10:16;;;;;;;3.15;2.55;;;;;;;18.37;65.22;99849.47;5069378;28;20090;-61
2022/08/10 06:12:46;;;;;;;3.25;2.80;;;;;;;18.34;63.98;99850.00;5070771;28;20101;-60
2022/08/10 06:15:12;;;;;;;;;;;;;;;18.41;64.72;99847.00;5035095;28;20075;-60
2022/08/10 06:17:39;;;;;;;5.03;2.88;;;;;;;18.67;64.50;99838.78;5049712;28;20384;-61
2022/08/10 06:20:05;;;;;;;4.78;2.75;;;;;;;18.89;63.48;99858.00;5049962;28;20517;-60
2022/08/10 06:22:31;;;;;;;2.92;2.72;;;;;;;18.87;62.76;99864.75;5070259;28;20036;-60
2022/08/10 06:25:00;;;;;;;3.38;2.70;;;;;;;18.89;62.80;99870.63;5069132;28;20075;-59
2022/08/10 06:27:25;;;;;;;3.22;2.80;;;;;;;19.03;62.42;99867.03;5069750;28;20244;-60
2022/08/10 06:29:52;;;;;;;5.22;2.90;;;;;;;19.18;62.23;99868.78;5032154;28;20450;-60
2022/08/10 06:32:24;;;;;;;3.67;2.63;;;;;;;19.15;61.65;99873.88;5049071;28;20123;-60
2022/08/10 06:34:54;;;;;;;2.92;2.63;;;;;;;19.15;61.35;99876.59;5047014;28;20052;-61
2022/08/10 06:37:23;;;;;;;3.90;2.90;;;;;;;19.08;61.56;99876.91;5031875;28;20076;-61
2022/08/10 06:39:50;;;;;;;3.60;2.67;;;;;;;19.25;61.18;99888.06;5015209;28;20056;-60
2022/08/10 06:42:21;;;;;;;4.00;2.83;;;;;;;19.19;59.47;99880.31;5031339;28;20041;-64
2022/08/10 06:44:52;;;;;;;3.95;2.70;;;;;;;19.16;59.97;99891.63;5030333;28;20059;-59
2022/08/10 06:47:19;;;;;;;3.22;2.92;;;;;;;19.08;59.87;99886.88;5045405;28;20052;-60
2022/08/10 06:49:47;;;;;;;2.97;2.65;;;;;;;19.08;59.06;99884.97;5026968;28;20084;-61
2022/08/10 06:52:13;;;;;;;3.17;2.47;;;;;;;19.04;59.75;99892.81;5027949;28;20049;-62
2022/08/10 06:54:39;;;;;;;2.17;1.90;;;;;;;18.96;58.60;99877.28;5028219;28;20093;-60
2022/08/10 06:57:05;;;;;;;3.25;2.53;;;;;;;18.97;58.90;99884.28;5029235;28;20040;-61
2022/08/10 06:59:36;;;;;;;2.20;2.00;;;;;;;19.02;58.43;99872.66;5042843;28;20045;-60
2022/08/10 07:02:14;;;;;;;2.70;2.30;;;;;;;18.95;59.42;99874.88;5048540;28;20040;-60
2022/08/10 07:05:03;;;;;;;2.80;2.50;;;;;;;19.04;58.96;99903.53;5051274;28;20581;-61
2022/08/10 07:07:31;;;;;;;2.60;2.28;;;;;;;19.06;57.73;99881.78;5067883;28;20063;-60
2022/08/10 07:09:58;;;;;;;2.50;2.30;;;;;;;19.00;59.30;99886.41;5051325;28;20048;-60
2022/08/10 07:12:24;;;;;;;2.78;2.10;;;;;;;19.09;58.81;99888.47;5072080;28;20401;-61
2022/08/10 07:14:51;;;;;;;2.60;2.40;;;;;;;19.13;58.48;99886.81;5071851;28;20055;-60
2022/08/10 07:17:22;;;;;;;2.97;2.28;;;;;;;19.14;58.76;99883.84;5054041;28;20043;-61
2022/08/10 07:19:51;;;;;;;2.65;2.45;;;;;;;19.25;58.14;99889.94;5035739;28;20062;-60
2022/08/10 07:22:19;;;;;;;3.53;2.17;;;;;;;19.24;57.88;99881.09;5052158;28;20043;-62
2022/08/10 07:24:45;;;;;;;3.53;2.35;;;;;;;19.36;58.40;99893.34;5053842;28;20473;-61
2022/08/10 07:27:11;;;;;;;2.65;2.20;;;;;;;19.38;57.25;99896.53;5051429;28;20040;-61
2022/08/10 07:29:39;;;;;;;2.40;2.20;;;;;;;19.36;57.82;99890.66;5050193;28;20521;-61
2022/08/10 07:32:06;;;;;;;1.98;1.88;;;;;;;19.38;57.23;99883.09;5052004;28;20071;-72
2022/08/10 07:34:32;;;;;;;3.58;2.38;;;;;;;19.46;57.01;99893.25;5072106;28;20056;-69
2022/08/10 07:37:01;;;;;;;2.50;2.30;;;;;;;19.46;57.45;99883.28;5068118;28;20040;-59
2022/08/10 07:39:33;;;;;;;4.05;2.88;;;;;;;19.45;57.93;99886.28;5068770;28;20045;-61
2022/08/10 07:41:59;;;;;;;2.53;2.33;;;;;;;19.57;57.91;99886.69;5071562;28;20123;-62
2022/08/10 07:44:26;;;;;;;3.50;2.25;;;;;;;19.69;57.57;99886.31;5051517;28;20052;-69
2022/08/10 07:46:52;;;;;;;4.28;2.38;;;;;;;19.66;57.48;99882.31;5048753;28;20082;-60
2022/08/10 07:49:24;;;;;;;2.75;2.47;;;;;;;19.71;57.65;99886.84;5051212;28;20052;-60
2022/08/10 07:51:52;;;;;;;3.55;2.40;;;;;;;19.67;58.06;99883.09;5069291;28;20044;-60
2022/08/10 07:54:19;;;;;;;3.08;2.38;;;;;;;19.57;59.61;99877.81;5052917;28;20036;-61
2022/08/10 07:56:47;;;;;;;3.08;2.45;;;;;;;19.61;58.73;99868.88;5071301;28;20029;-60
2022/08/10 07:59:16;;;;;;;2.80;2.42;;;;;;;19.74;57.73;99881.69;5049944;28;20499;-62
2022/08/10 08:01:47;;;;;;;3.47;2.45;;;;;;;19.85;57.90;99879.66;5050823;28;20040;-60
2022/08/10 08:04:13;;;;;;;2.55;2.10;;;;;;;20.08;57.83;99885.31;5043268;28;20603;-61
2022/08/10 08:06:40;;;;;;;3.38;2.25;;;;;;;20.23;56.50;99882.44;5048460;28;20387;-61
2022/08/10 08:09:07;;;;;;;2.75;2.40;;;;;;;20.30;56.15;99882.09;5047097;28;20518;-60
2022/08/10 08:11:33;;;;;;;3.13;2.13;;;;;;;20.34;56.65;99891.19;5030613;28;20140;-61
2022/08/10 08:13:59;;;;;;;5.45;2.60;;;;;;;20.21;56.20;99871.19;5030940;28;20041;-61
2022/08/10 08:16:25;;;;;;;2.40;2.20;;;;;;;20.19;56.00;99876.03;5031346;28;20052;-61
2022/08/10 08:18:53;;;;;;;2.95;2.60;;;;;;;20.20;55.42;99864.19;5050122;28;20047;-61
2022/08/10 08:21:19;;;;;;;4.80;2.80;;;;;;;20.19;56.16;99862.59;5049055;28;20047;-60
2022/08/10 08:23:46;;;;;;;4.20;2.30;;;;;;;20.29;56.10;99857.06;5051487;28;20094;-60
2022/08/10 08:26:13;;;;;;;3.70;2.22;;;;;;;20.37;55.86;99859.09;5033891;28;20044;-60
2022/08/10 08:28:39;;;;;;;2.35;2.00;;;;;;;20.28;55.63;99854.66;5033159;28;20048;-61
2022/08/10 08:31:05;;;;;;;2.67;2.30;;;;;;;20.30;55.65;99857.88;5051515;28;20040;-62
2022/08/10 08:33:32;;;;;;;2.33;2.10;;;;;;;20.40;53.45;99858.50;5049373;28;20509;-61
2022/08/10 08:35:58;;;;;;;2.00;1.90;;;;;;;20.52;53.31;99854.59;5032054;28;20033;-58
2022/08/10 08:38:25;;;;;;;2.53;2.20;;;;;;;20.38;52.82;99855.34;5033565;28;20073;-60
2022/08/10 08:41:00;;;;;;;4.53;2.20;;;;;;;20.61;51.65;99861.75;5032734;28;20060;-59
2022/08/10 08:43:44;;;;;;;3.05;2.25;;;;;;;20.66;52.07;99858.19;5049920;28;20073;-61
2022/08/10 08:46:13;;;;;;;2.10;1.90;;;;;;;20.71;51.55;99884.25;5051237;28;20475;-60
2022/08/10 08:48:57;;;;;;;2.15;1.90;;;;;;;20.53;49.71;99862.41;5050370;28;20040;-62
2022/08/10 08:51:51;;;;;;;2.10;1.90;;;;;;;20.56;48.88;99867.22;5050877;28;20040;-62
2022/08/10 08:54:32;;;;;;;3.10;2.00;;;;;;;20.72;49.49;99873.16;5051223;28;20047;-59
2022/08/10 08:57:17;;;;;;;2.20;1.90;;;;;;;20.76;48.23;99858.00;5049966;28;20490;-61
2022/08/10 09:00:12;;;;;;;4.13;2.33;;;;;;;20.81;47.23;99879.50;5049659;28;20312;-62
2022/08/10 09:02:43;;;;;;;5.35;1.83;;;;;;;20.94;47.28;99861.78;5051858;28;20033;-60
2022/08/10 09:05:24;;;;;;;1.73;1.63;;;;;;;21.06;46.96;99870.22;5050656;28;20049;-61
2022/08/10 09:08:34;;;;;;;2.00;1.67;;;;;;;21.10;47.17;99848.84;5050489;28;20105;-61
2022/08/10 09:11:00;;;;;;;;;;;;;;;21.11;47.57;99847.75;5017715;28;20052;-60
2022/08/10 09:13:28;;;;;;;3.75;1.75;;;;;;;21.12;47.62;99867.41;5049912;28;19951;-62
2022/08/10 09:16:15;;;;;;;3.10;1.80;;;;;;;21.33;47.37;99856.00;5050170;28;20076;-61
2022/08/10 09:19:07;;;;;;;1.70;1.60;;;;;;;21.47;46.57;99842.56;5049143;28;20049;-61
2022/08/10 09:22:01;;;;;;;5.80;1.60;;;;;;;21.48;45.50;99846.84;5032745;28;20106;-62
2022/08/10 09:24:51;;;;;;;1.75;1.60;;;;;;;21.51;45.92;99846.25;5047160;28;20562;-62
2022/08/10 09:27:23;;;;;;;2.05;1.85;;;;;;;21.54;45.56;99839.47;5032527;28;20041;-59
2022/08/10 09:30:09;;;;;;;1.63;1.52;;;;;;;21.45;46.27;99846.66;5047416;28;20044;-61
2022/08/10 09:32:41;;;;;;;2.33;1.80;;;;;;;21.26;46.90;99843.97;5031178;28;20056;-61
2022/08/10 09:35:27;;;;;;;3.35;1.77;;;;;;;21.35;47.59;99841.41;5031696;28;20041;-61
2022/08/10 09:38:17;;;;;;;1.85;1.75;;;;;;;21.37;46.48;99828.47;5032389;28;20041;-60
2022/08/10 09:40:53;;;;;;;1.70;1.60;;;;;;;21.36;46.25;99841.16;5050212;28;20048;-59
2022/08/10 09:43:43;;;;;;;2.95;1.77;;;;;;;21.25;46.91;99837.00;5049520;28;20052;-60
2022/08/10 09:46:24;;;;;;;1.50;1.40;;;;;;;21.14;47.62;99835.56;5049005;28;20060;-60
2022/08/10 09:49:19;;;;;;;2.63;1.90;;;;;;;21.18;47.71;99829.31;5031700;28;20070;-60
2022/08/10 09:52:01;;;;;;;1.65;1.55;;;;;;;21.29;46.68;99829.91;5029992;28;20496;-60
2022/08/10 09:54:47;;;;;;;1.90;1.80;;;;;;;21.45;46.89;99822.38;5047342;28;20092;-60
2022/08/10 09:57:23;;;;;;;3.08;1.83;;;;;;;21.43;47.10;99828.06;5049769;28;20095;-61
2022/08/10 10:00:14;;;;;;;1.73;1.63;;;;;;;21.48;45.76;99825.28;5049007;28;20041;-60
2022/08/10 10:02:51;;;;;;;1.98;1.42;;;;;;;21.55;44.88;99831.06;5050982;28;20045;-60
2022/08/10 10:05:20;;;;;;;2.50;1.70;;;;;;;21.60;44.50;99840.16;5068693;28;20048;-61
2022/08/10 10:07:54;;;;;;;3.10;1.70;;;;;;;21.77;44.27;99827.66;5070809;28;20089;-61
2022/08/10 10:10:30;;;;;;;1.80;1.70;;;;;;;21.98;44.27;99817.25;5067288;28;20080;-61
2022/08/10 10:12:59;;;;;;;2.25;1.73;;;;;;;22.00;45.21;99820.44;5054110;28;20044;-59
2022/08/10 10:15:43;;;;;;;1.70;1.60;;;;;;;22.01;44.46;99826.66;5041158;28;20155;-61
2022/08/10 10:18:27;;;;;;;1.63;1.52;;;;;;;22.06;44.42;99823.03;5061711;28;20032;-59
2022/08/10 10:21:04;;;;;;;2.03;1.70;;;;;;;22.09;44.46;99825.09;5070046;28;20463;-58
2022/08/10 10:23:39;;;;;;;1.85;1.67;;;;;;;22.03;44.92;99816.34;5046670;28;20045;-60
2022/08/10 10:26:31;;;;;;;2.33;1.88;;;;;;;22.13;43.81;99836.91;5046711;28;20033;-59
2022/08/10 10:29:18;;;;;;;1.75;1.65;;;;;;;22.14;44.77;99815.00;5049610;28;20051;-60
2022/08/10 10:32:11;;;;;;;1.55;1.45;;;;;;;22.07;44.74;99833.53;5049716;28;20424;-60
2022/08/10 10:34:49;;;;;;;2.80;1.73;;;;;;;22.08;44.86;99831.63;5048416;28;20044;-61
2022/08/10 10:37:17;;;;;;;1.70;1.60;;;;;;;22.26;43.56;99814.50;5046933;28;20044;-61
2022/08/10 10:39:43;;;;;;;1.60;1.50;;;;;;;22.37;42.95;99829.38;5043066;28;20127;-60
2022/08/10 10:42:37;;;;;;;1.33;1.23;;;;;;;22.35;40.25;99820.78;5068750;28;20041;-60
2022/08/10 10:45:19;;;;;;;1.73;1.60;;;;;;;22.28;43.09;99822.31;5070175;28;20433;-61
2022/08/10 10:48:29;;;;;;;2.95;1.80;;;;;;;22.11;43.63;99828.31;5074773;28;20496;-60
2022/08/10 10:51:02;;;;;;;3.95;1.42;;;;;;;22.11;44.38;99829.09;5074226;28;20053;-61
2022/08/10 10:54:02;;;;;;;1.80;1.70;;;;;;;22.17;44.47;99814.41;5039717;28;20123;-60
2022/08/10 10:57:05;;;;;;;2.15;1.73;;;;;;;22.07;44.61;99811.94;5039639;28;20123;-59
2022/08/10 11:00:00;;;;;;;3.30;1.50;;;;;;;22.06;44.63;99812.22;5055910;28;20048;-61
2022/08/10 11:02:43;;;;;;;2.28;1.52;;;;;;;22.05;44.86;99824.94;5035644;28;20641;-60
2022/08/10 11:05:18;;;;;;;3.60;1.73;;;;;;;22.13;44.88;99810.72;5053366;28;20055;-60
2022/08/10 11:07:51;;;;;;;3.25;1.80;;;;;;;22.19;45.24;99814.94;5043904;28;20036;-61
2022/08/10 11:10:21;;;;;;;1.83;1.73;;;;;;;22.14;46.32;99816.91;5019232;28;20051;-61
2022/08/10 11:13:11;;;;;;;3.33;1.60;;;;;;;22.25;45.90;99807.50;5036437;28;20045;-60
2022/08/10 11:16:01;;;;;;;1.75;1.65;;;;;;;22.22;46.33;99816.22;5035771;28;20037;-60
2022/08/10 11:18:32;;;;;;;4.72;2.05;;;;;;;22.09;45.45;99809.75;5036080;28;20480;-59
2022/08/10 11:21:26;;;;;;;1.63;1.52;;;;;;;22.07;44.57;99808.44;5052490;28;20447;-59
2022/08/10 11:23:55;;;;;;;1.80;1.70;;;;;;;22.13;44.45;99802.63;5044847;28;20047;-60
2022/08/10 11:26:27;;;;;;;2.65;1.70;;;;;;;22.33;43.72;99796.00;5072944;28;20044;-61
2022/08/10 11:29:02;;;;;;;1.75;1.60;;;;;;;22.35;43.87;99793.75;5055985;28;20040;-59
2022/08/10 11:31:35;;;;;;;2.80;1.65;;;;;;;22.23;45.03;99794.31;5055749;28;20044;-60
2022/08/10 11:34:11;;;;;;;1.95;1.40;;;;;;;22.20;44.36;99807.63;5055341;28;20058;-60
2022/08/10 11:37:02;;;;;;;2.53;1.52;;;;;;;22.13;45.51;99826.13;5055025;28;20532;-60
2022/08/10 11:39:52;;;;;;;3.03;1.50;;;;;;;22.14;45.70;99804.19;5071348;28;20059;-60
2022/08/10 11:42:30;;;;;;;2.05;1.42;;;;;;;22.20;44.25;99797.63;5071821;28;20063;-60
2022/08/10 11:45:02;;;;;;;2.65;1.40;;;;;;;22.35;44.28;99795.66;5037714;28;20433;-61
2022/08/10 11:47:37;;;;;;;1.67;1.58;;;;;;;22.42;43.68;99793.38;5055175;28;20114;-59
2022/08/10 11:50:09;;;;;;;3.50;1.60;;;;;;;22.52;43.61;99819.31;5051563;28;20063;-60
2022/08/10 11:52:43;;;;;;;2.45;1.40;;;;;;;22.47;43.29;99795.13;5034440;28;20045;-60
2022/08/10 11:55:19;;;;;;;1.63;1.38;;;;;;;22.43;43.30;99794.94;5050363;28;20143;-59